sensor_id;sensor_type;location;lat;lon;timestamp;temperature;humidity
4701;DHT22;8724;51.272;6.554;2023-11-21T00:00:21;12.10;99.90
4701;DHT22;8724;51.272;6.554;2023-11-21T00:02:49;12.00;99.90
4701;DHT22;8724;51.272;6.554;2023-11-21T00:05:18;12.00;99.90
4701;DHT22;8724;51.272;6.554;2023-11-21T00:07:46;12.00;99.90
4701;DHT22;8724;51.272;6.554;2023-11-21T00:10:15;12.00;99.90
4701;DHT22;8724;51.272;6.554;2023-11-21T00:12:43;12.00;99.90
4701;DHT22;8724;51.272;6.554;2023-11-21T00:15:14;12.30;99.90
4701;DHT22;8724;51.272;6.554;2023-11-21T00:17:43;12.10;99.90
4701;DHT22;8724;51.272;6.554;2023-11-21T00:20:11;12.10;99.90
4701;DHT22;8724;51.272;6.554;2023-11-21T00:22:41;12.10;99.90
4701;DHT22;8724;51.272;6.554;2023-11-21T00:25:10;12.10;99.90
4701;DHT22;8724;51.272;6.554;2023-11-21T00:27:40;12.10;99.90
4701;DHT22;8724;51.272;6.554;2023-11-21T00:30:09;12.10;99.90
4701;DHT22;8724;51.272;6.554;2023-11-21T00:32:37;12.10;99.90
4701;DHT22;8724;51.272;6.554;2023-11-21T00:35:07;12.10;99.90
4701;DHT22;8724;51.272;6.554;2023-11-21T00:37:35;12.20;99.90
4701;DHT22;8724;51.272;6.554;2023-11-21T00:40:06;12.40;99.90
4701;DHT22;8724;51.272;6.554;2023-11-21T00:42:34;12.20;99.90
4701;DHT22;8724;51.272;6.554;2023-11-21T00:45:05;12.20;99.90
4701;DHT22;8724;51.272;6.554;2023-11-21T00:47:34;12.20;99.90
4701;DHT22;8724;51.272;6.554;2023-11-21T00:50:02;12.20;99.90
4701;DHT22;8724;51.272;6.554;2023-11-21T00:52:33;12.20;99.90
4701;DHT22;8724;51.272;6.554;2023-11-21T00:55:01;12.20;99.90
4701;DHT22;8724;51.272;6.554;2023-11-21T00:57:30;12.20;99.90
4701;DHT22;8724;51.272;6.554;2023-11-21T00:59:58;12.20;99.90
4701;DHT22;8724;51.272;6.554;2023-11-21T01:02:28;12.20;99.90
4701;DHT22;8724;51.272;6.554;2023-11-21T01:04:56;12.30;99.90
4701;DHT22;8724;51.272;6.554;2023-11-21T01:07:24;12.40;99.90
4701;DHT22;8724;51.272;6.554;2023-11-21T01:09:52;12.30;99.90
4701;DHT22;8724;51.272;6.554;2023-11-21T01:12:21;12.30;99.90
4701;DHT22;8724;51.272;6.554;2023-11-21T01:14:52;12.30;99.90
4701;DHT22;8724;51.272;6.554;2023-11-21T01:17:21;12.30;99.90
4701;DHT22;8724;51.272;6.554;2023-11-21T01:19:52;12.30;99.90
4701;DHT22;8724;51.272;6.554;2023-11-21T01:22:21;12.30;99.90
4701;DHT22;8724;51.272;6.554;2023-11-21T01:24:53;12.30;99.90
4701;DHT22;8724;51.272;6.554;2023-11-21T01:27:21;12.30;99.90
4701;DHT22;8724;51.272;6.554;2023-11-21T01:29:50;12.30;99.90
4701;DHT22;8724;51.272;6.554;2023-11-21T01:32:21;12.50;99.90
4701;DHT22;8724;51.272;6.554;2023-11-21T01:34:52;12.30;99.90
4701;DHT22;8724;51.272;6.554;2023-11-21T01:37:20;12.30;99.90
4701;DHT22;8724;51.272;6.554;2023-11-21T01:39:48;12.30;99.90
4701;DHT22;8724;51.272;6.554;2023-11-21T01:42:17;12.30;99.90
4701;DHT22;8724;51.272;6.554;2023-11-21T01:44:45;12.30;99.90
4701;DHT22;8724;51.272;6.554;2023-11-21T01:47:13;12.30;99.90
4701;DHT22;8724;51.272;6.554;2023-11-21T01:49:43;12.30;99.90
4701;DHT22;8724;51.272;6.554;2023-11-21T01:52:13;12.30;99.90
4701;DHT22;8724;51.272;6.554;2023-11-21T01:54:42;12.30;99.90
4701;DHT22;8724;51.272;6.554;2023-11-21T01:57:10;12.30;99.90
4701;DHT22;8724;51.272;6.554;2023-11-21T01:59:41;12.30;99.90
4701;DHT22;8724;51.272;6.554;2023-11-21T02:02:09;12.30;99.90
4701;DHT22;8724;51.272;6.554;2023-11-21T02:04:38;12.30;99.90
4701;DHT22;8724;51.272;6.554;2023-11-21T02:07:06;12.30;99.90
4701;DHT22;8724;51.272;6.554;2023-11-21T02:09:36;12.30;99.90
4701;DHT22;8724;51.272;6.554;2023-11-21T02:12:05;12.30;99.90
4701;DHT22;8724;51.272;6.554;2023-11-21T02:14:35;12.30;99.90
4701;DHT22;8724;51.272;6.554;2023-11-21T02:17:04;12.30;99.90
4701;DHT22;8724;51.272;6.554;2023-11-21T02:19:32;12.30;99.90
4701;DHT22;8724;51.272;6.554;2023-11-21T02:22:01;12.30;99.90
4701;DHT22;8724;51.272;6.554;2023-11-21T02:24:34;12.30;99.90
4701;DHT22;8724;51.272;6.554;2023-11-21T02:27:03;12.40;99.90
4701;DHT22;8724;51.272;6.554;2023-11-21T02:29:33;12.30;99.90
4701;DHT22;8724;51.272;6.554;2023-11-21T02:32:01;12.30;99.90
4701;DHT22;8724;51.272;6.554;2023-11-21T02:34:30;12.30;99.90
4701;DHT22;8724;51.272;6.554;2023-11-21T02:36:59;12.30;99.90
4701;DHT22;8724;51.272;6.554;2023-11-21T02:39:27;12.30;99.90
4701;DHT22;8724;51.272;6.554;2023-11-21T02:41:56;12.30;99.90
4701;DHT22;8724;51.272;6.554;2023-11-21T02:44:24;12.30;99.90
4701;DHT22;8724;51.272;6.554;2023-11-21T02:46:53;12.30;99.90
4701;DHT22;8724;51.272;6.554;2023-11-21T02:49:21;12.30;99.90
4701;DHT22;8724;51.272;6.554;2023-11-21T02:51:49;12.30;99.90
4701;DHT22;8724;51.272;6.554;2023-11-21T02:54:18;12.30;99.90
4701;DHT22;8724;51.272;6.554;2023-11-21T02:56:48;12.20;99.90
4701;DHT22;8724;51.272;6.554;2023-11-21T02:59:18;12.20;99.90
4701;DHT22;8724;51.272;6.554;2023-11-21T03:01:47;12.20;99.90
4701;DHT22;8724;51.272;6.554;2023-11-21T03:04:16;12.20;99.90
4701;DHT22;8724;51.272;6.554;2023-11-21T03:06:45;12.30;99.90
4701;DHT22;8724;51.272;6.554;2023-11-21T03:09:13;12.20;99.90
4701;DHT22;8724;51.272;6.554;2023-11-21T03:11:41;12.30;99.90
4701;DHT22;8724;51.272;6.554;2023-11-21T03:14:09;12.30;99.90
4701;DHT22;8724;51.272;6.554;2023-11-21T03:16:39;12.20;99.90
4701;DHT22;8724;51.272;6.554;2023-11-21T03:19:09;12.20;99.90
4701;DHT22;8724;51.272;6.554;2023-11-21T03:21:37;12.30;99.90
4701;DHT22;8724;51.272;6.554;2023-11-21T03:24:06;12.30;99.90
4701;DHT22;8724;51.272;6.554;2023-11-21T03:26:34;12.30;99.90
4701;DHT22;8724;51.272;6.554;2023-11-21T03:29:04;12.20;99.90
4701;DHT22;8724;51.272;6.554;2023-11-21T03:31:32;12.20;99.90
4701;DHT22;8724;51.272;6.554;2023-11-21T03:34:02;12.20;99.90
4701;DHT22;8724;51.272;6.554;2023-11-21T03:36:30;12.20;99.90
4701;DHT22;8724;51.272;6.554;2023-11-21T03:38:58;12.20;99.90
4701;DHT22;8724;51.272;6.554;2023-11-21T03:41:26;12.20;99.90
4701;DHT22;8724;51.272;6.554;2023-11-21T03:43:55;12.20;99.90
4701;DHT22;8724;51.272;6.554;2023-11-21T03:46:23;12.20;99.90
4701;DHT22;8724;51.272;6.554;2023-11-21T03:48:51;12.20;99.90
4701;DHT22;8724;51.272;6.554;2023-11-21T03:51:22;12.20;99.90
4701;DHT22;8724;51.272;6.554;2023-11-21T03:53:51;12.20;99.90
4701;DHT22;8724;51.272;6.554;2023-11-21T03:56:19;12.20;99.90
4701;DHT22;8724;51.272;6.554;2023-11-21T03:58:48;12.20;99.90
4701;DHT22;8724;51.272;6.554;2023-11-21T04:01:21;12.20;99.90
4701;DHT22;8724;51.272;6.554;2023-11-21T04:03:50;12.20;99.90
4701;DHT22;8724;51.272;6.554;2023-11-21T04:06:19;12.20;99.90
4701;DHT22;8724;51.272;6.554;2023-11-21T04:08:48;12.20;99.90
4701;DHT22;8724;51.272;6.554;2023-11-21T04:11:16;12.20;99.90
4701;DHT22;8724;51.272;6.554;2023-11-21T04:13:44;12.20;99.90
4701;DHT22;8724;51.272;6.554;2023-11-21T04:16:13;12.30;99.90
4701;DHT22;8724;51.272;6.554;2023-11-21T04:18:41;12.20;99.90
4701;DHT22;8724;51.272;6.554;2023-11-21T04:21:09;12.30;99.90
4701;DHT22;8724;51.272;6.554;2023-11-21T04:23:37;12.30;99.90
4701;DHT22;8724;51.272;6.554;2023-11-21T04:26:08;12.30;99.90
4701;DHT22;8724;51.272;6.554;2023-11-21T04:28:36;12.30;99.90
4701;DHT22;8724;51.272;6.554;2023-11-21T04:31:04;12.30;99.90
4701;DHT22;8724;51.272;6.554;2023-11-21T04:33:34;12.30;99.90
4701;DHT22;8724;51.272;6.554;2023-11-21T04:36:02;12.40;99.90
4701;DHT22;8724;51.272;6.554;2023-11-21T04:38:30;12.30;99.90
4701;DHT22;8724;51.272;6.554;2023-11-21T04:41:00;12.30;99.90
4701;DHT22;8724;51.272;6.554;2023-11-21T04:43:31;12.30;99.90
4701;DHT22;8724;51.272;6.554;2023-11-21T04:45:59;12.30;99.90
4701;DHT22;8724;51.272;6.554;2023-11-21T04:48:27;12.30;99.90
4701;DHT22;8724;51.272;6.554;2023-11-21T04:50:55;12.30;99.90
4701;DHT22;8724;51.272;6.554;2023-11-21T04:53:24;12.20;99.90
4701;DHT22;8724;51.272;6.554;2023-11-21T04:55:52;12.20;99.90
4701;DHT22;8724;51.272;6.554;2023-11-21T04:58:20;12.20;99.90
4701;DHT22;8724;51.272;6.554;2023-11-21T05:00:50;12.20;99.90
4701;DHT22;8724;51.272;6.554;2023-11-21T05:03:18;12.20;99.90
4701;DHT22;8724;51.272;6.554;2023-11-21T05:05:47;12.20;99.90
4701;DHT22;8724;51.272;6.554;2023-11-21T05:08:16;12.20;99.90
4701;DHT22;8724;51.272;6.554;2023-11-21T05:10:44;12.20;99.90
4701;DHT22;8724;51.272;6.554;2023-11-21T05:13:12;12.20;99.90
4701;DHT22;8724;51.272;6.554;2023-11-21T05:15:42;12.20;99.90
4701;DHT22;8724;51.272;6.554;2023-11-21T05:18:12;12.20;99.90
4701;DHT22;8724;51.272;6.554;2023-11-21T05:20:41;12.20;99.90
4701;DHT22;8724;51.272;6.554;2023-11-21T05:23:09;12.20;99.90
4701;DHT22;8724;51.272;6.554;2023-11-21T05:25:37;12.20;99.90
4701;DHT22;8724;51.272;6.554;2023-11-21T05:28:07;12.50;99.90
4701;DHT22;8724;51.272;6.554;2023-11-21T05:30:35;12.20;99.90
4701;DHT22;8724;51.272;6.554;2023-11-21T05:33:03;12.20;99.90
4701;DHT22;8724;51.272;6.554;2023-11-21T05:35:32;12.20;99.90
4701;DHT22;8724;51.272;6.554;2023-11-21T05:38:00;12.20;99.90
4701;DHT22;8724;51.272;6.554;2023-11-21T05:40:29;12.20;99.90
4701;DHT22;8724;51.272;6.554;2023-11-21T05:42:57;12.20;99.90
4701;DHT22;8724;51.272;6.554;2023-11-21T05:45:26;12.20;99.90
4701;DHT22;8724;51.272;6.554;2023-11-21T05:47:55;12.20;99.90
4701;DHT22;8724;51.272;6.554;2023-11-21T05:50:24;12.20;99.90
4701;DHT22;8724;51.272;6.554;2023-11-21T05:52:53;12.20;99.90
4701;DHT22;8724;51.272;6.554;2023-11-21T05:55:22;12.10;99.90
4701;DHT22;8724;51.272;6.554;2023-11-21T05:57:52;12.10;99.90
4701;DHT22;8724;51.272;6.554;2023-11-21T06:00:21;12.30;99.90
4701;DHT22;8724;51.272;6.554;2023-11-21T06:02:50;12.00;99.90
4701;DHT22;8724;51.272;6.554;2023-11-21T06:05:21;11.90;99.90
4701;DHT22;8724;51.272;6.554;2023-11-21T06:07:50;11.90;99.90
4701;DHT22;8724;51.272;6.554;2023-11-21T06:10:22;11.80;99.90
4701;DHT22;8724;51.272;6.554;2023-11-21T06:12:51;11.80;99.90
4701;DHT22;8724;51.272;6.554;2023-11-21T06:15:20;11.80;99.90
4701;DHT22;8724;51.272;6.554;2023-11-21T06:17:50;11.80;99.90
4701;DHT22;8724;51.272;6.554;2023-11-21T06:20:20;11.80;99.90
4701;DHT22;8724;51.272;6.554;2023-11-21T06:22:50;11.80;99.90
4701;DHT22;8724;51.272;6.554;2023-11-21T06:25:19;11.80;99.90
4701;DHT22;8724;51.272;6.554;2023-11-21T06:27:50;11.80;99.90
4701;DHT22;8724;51.272;6.554;2023-11-21T06:30:20;11.80;99.90
4701;DHT22;8724;51.272;6.554;2023-11-21T06:32:50;11.80;99.90
4701;DHT22;8724;51.272;6.554;2023-11-21T06:35:20;12.20;99.90
4701;DHT22;8724;51.272;6.554;2023-11-21T06:37:49;11.90;99.90
4701;DHT22;8724;51.272;6.554;2023-11-21T06:40:19;11.80;99.90
4701;DHT22;8724;51.272;6.554;2023-11-21T06:42:49;11.90;99.90
4701;DHT22;8724;51.272;6.554;2023-11-21T06:45:19;11.90;99.90
4701;DHT22;8724;51.272;6.554;2023-11-21T06:47:48;11.90;99.90
4701;DHT22;8724;51.272;6.554;2023-11-21T06:50:17;11.90;99.90
4701;DHT22;8724;51.272;6.554;2023-11-21T06:52:45;11.90;99.90
4701;DHT22;8724;51.272;6.554;2023-11-21T06:55:14;11.90;99.90
4701;DHT22;8724;51.272;6.554;2023-11-21T06:57:43;11.90;99.90
4701;DHT22;8724;51.272;6.554;2023-11-21T07:00:15;11.90;99.90
4701;DHT22;8724;51.272;6.554;2023-11-21T07:02:44;11.90;99.90
4701;DHT22;8724;51.272;6.554;2023-11-21T07:05:12;11.90;99.90
4701;DHT22;8724;51.272;6.554;2023-11-21T07:07:42;12.10;99.90
4701;DHT22;8724;51.272;6.554;2023-11-21T07:10:11;11.90;99.90
4701;DHT22;8724;51.272;6.554;2023-11-21T07:12:39;11.90;99.90
4701;DHT22;8724;51.272;6.554;2023-11-21T07:15:08;11.90;99.90
4701;DHT22;8724;51.272;6.554;2023-11-21T07:17:38;11.90;99.90
4701;DHT22;8724;51.272;6.554;2023-11-21T07:20:08;11.90;99.90
4701;DHT22;8724;51.272;6.554;2023-11-21T07:22:37;11.90;99.90
4701;DHT22;8724;51.272;6.554;2023-11-21T07:25:06;11.90;99.90
4701;DHT22;8724;51.272;6.554;2023-11-21T07:27:36;11.90;99.90
4701;DHT22;8724;51.272;6.554;2023-11-21T07:30:05;11.80;99.90
4701;DHT22;8724;51.272;6.554;2023-11-21T07:32:35;11.90;99.90
4701;DHT22;8724;51.272;6.554;2023-11-21T07:35:06;11.90;99.90
4701;DHT22;8724;51.272;6.554;2023-11-21T07:37:35;11.90;99.90
4701;DHT22;8724;51.272;6.554;2023-11-21T07:40:04;12.00;99.90
4701;DHT22;8724;51.272;6.554;2023-11-21T07:42:35;11.90;99.90
4701;DHT22;8724;51.272;6.554;2023-11-21T07:45:05;12.00;99.90
4701;DHT22;8724;51.272;6.554;2023-11-21T07:47:34;12.00;99.90
4701;DHT22;8724;51.272;6.554;2023-11-21T07:50:02;11.90;99.90
4701;DHT22;8724;51.272;6.554;2023-11-21T07:52:32;11.90;99.90
4701;DHT22;8724;51.272;6.554;2023-11-21T07:55:01;12.00;99.90
4701;DHT22;8724;51.272;6.554;2023-11-21T07:57:29;11.90;99.90
4701;DHT22;8724;51.272;6.554;2023-11-21T07:59:57;12.00;99.90
4701;DHT22;8724;51.272;6.554;2023-11-21T08:02:25;12.00;99.90
4701;DHT22;8724;51.272;6.554;2023-11-21T08:04:54;12.00;99.90
4701;DHT22;8724;51.272;6.554;2023-11-21T08:07:24;12.00;99.90
4701;DHT22;8724;51.272;6.554;2023-11-21T08:09:54;12.00;99.90
4701;DHT22;8724;51.272;6.554;2023-11-21T08:12:23;12.00;99.90
4701;DHT22;8724;51.272;6.554;2023-11-21T08:14:54;12.00;99.90
4701;DHT22;8724;51.272;6.554;2023-11-21T08:17:22;12.00;99.90
4701;DHT22;8724;51.272;6.554;2023-11-21T08:19:50;12.30;99.90
4701;DHT22;8724;51.272;6.554;2023-11-21T08:22:19;12.10;99.90
4701;DHT22;8724;51.272;6.554;2023-11-21T08:24:47;12.00;99.90
4701;DHT22;8724;51.272;6.554;2023-11-21T08:27:17;12.00;99.90
4701;DHT22;8724;51.272;6.554;2023-11-21T08:29:45;12.00;99.90
4701;DHT22;8724;51.272;6.554;2023-11-21T08:32:13;11.90;99.90
4701;DHT22;8724;51.272;6.554;2023-11-21T08:34:42;11.90;99.90
4701;DHT22;8724;51.272;6.554;2023-11-21T08:37:11;11.90;99.90
4701;DHT22;8724;51.272;6.554;2023-11-21T08:39:43;11.90;99.90
4701;DHT22;8724;51.272;6.554;2023-11-21T08:42:11;11.90;99.90
4701;DHT22;8724;51.272;6.554;2023-11-21T08:44:41;11.90;99.90
4701;DHT22;8724;51.272;6.554;2023-11-21T08:47:09;11.80;99.90
4701;DHT22;8724;51.272;6.554;2023-11-21T08:49:37;11.80;99.90
4701;DHT22;8724;51.272;6.554;2023-11-21T08:52:06;11.90;99.90
4701;DHT22;8724;51.272;6.554;2023-11-21T08:54:34;11.80;99.90
4701;DHT22;8724;51.272;6.554;2023-11-21T08:57:03;11.80;99.90
4701;DHT22;8724;51.272;6.554;2023-11-21T08:59:32;11.90;99.90
4701;DHT22;8724;51.272;6.554;2023-11-21T09:02:01;11.90;99.90
4701;DHT22;8724;51.272;6.554;2023-11-21T09:04:29;11.90;99.90
4701;DHT22;8724;51.272;6.554;2023-11-21T09:06:57;11.80;99.90
4701;DHT22;8724;51.272;6.554;2023-11-21T09:09:27;11.90;99.90
4701;DHT22;8724;51.272;6.554;2023-11-21T09:11:56;11.90;99.90
4701;DHT22;8724;51.272;6.554;2023-11-21T09:14:27;11.90;99.90
4701;DHT22;8724;51.272;6.554;2023-11-21T09:16:56;11.90;99.90
4701;DHT22;8724;51.272;6.554;2023-11-21T09:19:25;11.90;99.90
4701;DHT22;8724;51.272;6.554;2023-11-21T09:21:54;11.90;99.90
4701;DHT22;8724;51.272;6.554;2023-11-21T09:24:24;11.90;99.90
4701;DHT22;8724;51.272;6.554;2023-11-21T09:26:53;11.90;99.90
4701;DHT22;8724;51.272;6.554;2023-11-21T09:29:21;11.90;99.90
4701;DHT22;8724;51.272;6.554;2023-11-21T09:31:49;11.90;99.90
4701;DHT22;8724;51.272;6.554;2023-11-21T09:34:18;12.00;99.90
4701;DHT22;8724;51.272;6.554;2023-11-21T09:36:48;12.00;99.90
4701;DHT22;8724;51.272;6.554;2023-11-21T09:39:16;11.90;99.90
4701;DHT22;8724;51.272;6.554;2023-11-21T09:41:49;12.00;99.90
4701;DHT22;8724;51.272;6.554;2023-11-21T09:44:20;12.00;99.90
4701;DHT22;8724;51.272;6.554;2023-11-21T09:46:51;11.90;99.90
4701;DHT22;8724;51.272;6.554;2023-11-21T09:49:23;11.90;99.90
4701;DHT22;8724;51.272;6.554;2023-11-21T09:51:55;11.90;99.90
4701;DHT22;8724;51.272;6.554;2023-11-21T09:54:24;11.90;99.90
4701;DHT22;8724;51.272;6.554;2023-11-21T09:56:53;11.90;99.90
4701;DHT22;8724;51.272;6.554;2023-11-21T09:59:22;11.90;99.90
4701;DHT22;8724;51.272;6.554;2023-11-21T10:01:50;11.90;99.90
4701;DHT22;8724;51.272;6.554;2023-11-21T10:04:19;12.00;99.90
4701;DHT22;8724;51.272;6.554;2023-11-21T10:06:47;11.90;99.90
4701;DHT22;8724;51.272;6.554;2023-11-21T10:09:18;12.00;99.90
4701;DHT22;8724;51.272;6.554;2023-11-21T10:11:49;12.00;99.90
4701;DHT22;8724;51.272;6.554;2023-11-21T10:14:19;12.00;99.90
4701;DHT22;8724;51.272;6.554;2023-11-21T10:16:52;12.00;99.90
4701;DHT22;8724;51.272;6.554;2023-11-21T10:19:21;12.10;99.90
4701;DHT22;8724;51.272;6.554;2023-11-21T10:21:51;12.10;99.90
4701;DHT22;8724;51.272;6.554;2023-11-21T10:24:20;12.10;99.90
4701;DHT22;8724;51.272;6.554;2023-11-21T10:26:49;12.10;99.90
4701;DHT22;8724;51.272;6.554;2023-11-21T10:29:20;12.10;99.90
4701;DHT22;8724;51.272;6.554;2023-11-21T10:31:50;12.10;99.90
4701;DHT22;8724;51.272;6.554;2023-11-21T10:34:19;12.10;99.90
4701;DHT22;8724;51.272;6.554;2023-11-21T10:36:48;12.10;99.90
4701;DHT22;8724;51.272;6.554;2023-11-21T10:39:17;12.20;99.90
4701;DHT22;8724;51.272;6.554;2023-11-21T10:41:48;12.10;99.90
4701;DHT22;8724;51.272;6.554;2023-11-21T10:44:17;12.20;99.90
4701;DHT22;8724;51.272;6.554;2023-11-21T10:46:49;12.20;99.90
4701;DHT22;8724;51.272;6.554;2023-11-21T10:49:21;12.20;99.90
4701;DHT22;8724;51.272;6.554;2023-11-21T10:51:52;12.20;99.90
4701;DHT22;8724;51.272;6.554;2023-11-21T10:54:21;12.20;99.90
4701;DHT22;8724;51.272;6.554;2023-11-21T10:56:53;12.20;99.90
4701;DHT22;8724;51.272;6.554;2023-11-21T10:59:24;12.20;99.90
4701;DHT22;8724;51.272;6.554;2023-11-21T11:01:53;12.20;99.90
4701;DHT22;8724;51.272;6.554;2023-11-21T11:04:22;12.20;99.90
4701;DHT22;8724;51.272;6.554;2023-11-21T11:06:55;12.30;99.90
4701;DHT22;8724;51.272;6.554;2023-11-21T11:09:24;12.30;99.90
4701;DHT22;8724;51.272;6.554;2023-11-21T11:11:55;12.30;99.90
4701;DHT22;8724;51.272;6.554;2023-11-21T11:14:23;12.30;99.90
4701;DHT22;8724;51.272;6.554;2023-11-21T11:16:54;12.30;99.90
4701;DHT22;8724;51.272;6.554;2023-11-21T11:19:23;12.40;99.90
4701;DHT22;8724;51.272;6.554;2023-11-21T11:22:00;12.40;99.90
4701;DHT22;8724;51.272;6.554;2023-11-21T11:24:45;12.40;99.90
4701;DHT22;8724;51.272;6.554;2023-11-21T11:27:23;12.30;99.90
4701;DHT22;8724;51.272;6.554;2023-11-21T11:30:03;12.40;99.90
4701;DHT22;8724;51.272;6.554;2023-11-21T11:32:40;12.40;99.90
4701;DHT22;8724;51.272;6.554;2023-11-21T11:35:17;12.30;99.90
4701;DHT22;8724;51.272;6.554;2023-11-21T11:37:47;12.40;99.90
4701;DHT22;8724;51.272;6.554;2023-11-21T11:40:15;12.40;99.90
4701;DHT22;8724;51.272;6.554;2023-11-21T11:42:56;12.40;99.90
4701;DHT22;8724;51.272;6.554;2023-11-21T11:45:32;12.40;99.90
4701;DHT22;8724;51.272;6.554;2023-11-21T11:48:01;12.40;99.90
4701;DHT22;8724;51.272;6.554;2023-11-21T11:50:30;12.50;99.90
4701;DHT22;8724;51.272;6.554;2023-11-21T11:53:12;12.50;99.90
4701;DHT22;8724;51.272;6.554;2023-11-21T11:55:40;12.50;99.90
4701;DHT22;8724;51.272;6.554;2023-11-21T11:58:10;12.50;99.90
4701;DHT22;8724;51.272;6.554;2023-11-21T12:00:39;12.50;99.90
4701;DHT22;8724;51.272;6.554;2023-11-21T12:03:09;12.50;99.90
4701;DHT22;8724;51.272;6.554;2023-11-21T12:05:37;12.50;99.90
4701;DHT22;8724;51.272;6.554;2023-11-21T12:08:07;12.50;99.90
4701;DHT22;8724;51.272;6.554;2023-11-21T12:10:36;12.50;99.90
4701;DHT22;8724;51.272;6.554;2023-11-21T12:13:06;12.50;99.90
4701;DHT22;8724;51.272;6.554;2023-11-21T12:15:37;12.50;99.90
4701;DHT22;8724;51.272;6.554;2023-11-21T12:18:08;12.50;99.90
4701;DHT22;8724;51.272;6.554;2023-11-21T12:20:36;12.80;99.90
4701;DHT22;8724;51.272;6.554;2023-11-21T12:23:07;12.50;99.90
4701;DHT22;8724;51.272;6.554;2023-11-21T12:25:37;12.50;99.90
4701;DHT22;8724;51.272;6.554;2023-11-21T12:28:09;12.50;99.90
4701;DHT22;8724;51.272;6.554;2023-11-21T12:30:39;12.50;99.90
4701;DHT22;8724;51.272;6.554;2023-11-21T12:33:09;12.60;99.90
4701;DHT22;8724;51.272;6.554;2023-11-21T12:35:40;12.50;99.90
4701;DHT22;8724;51.272;6.554;2023-11-21T12:38:10;12.80;99.90
4701;DHT22;8724;51.272;6.554;2023-11-21T12:40:38;12.50;99.90
4701;DHT22;8724;51.272;6.554;2023-11-21T12:43:07;12.50;99.90
4701;DHT22;8724;51.272;6.554;2023-11-21T12:45:36;12.50;99.90
4701;DHT22;8724;51.272;6.554;2023-11-21T12:48:06;12.50;99.90
4701;DHT22;8724;51.272;6.554;2023-11-21T12:50:36;12.40;99.90
4701;DHT22;8724;51.272;6.554;2023-11-21T12:53:06;12.40;99.90
4701;DHT22;8724;51.272;6.554;2023-11-21T12:55:37;12.40;99.90
4701;DHT22;8724;51.272;6.554;2023-11-21T12:58:07;12.40;99.90
4701;DHT22;8724;51.272;6.554;2023-11-21T13:00:39;12.40;99.90
4701;DHT22;8724;51.272;6.554;2023-11-21T13:03:11;12.40;99.90
4701;DHT22;8724;51.272;6.554;2023-11-21T13:05:45;12.40;99.90
4701;DHT22;8724;51.272;6.554;2023-11-21T13:08:18;12.40;99.90
4701;DHT22;8724;51.272;6.554;2023-11-21T13:10:49;12.40;99.90
4701;DHT22;8724;51.272;6.554;2023-11-21T13:13:19;12.30;99.90
4701;DHT22;8724;51.272;6.554;2023-11-21T13:15:52;12.30;99.90
4701;DHT22;8724;51.272;6.554;2023-11-21T13:18:24;12.30;99.90
4701;DHT22;8724;51.272;6.554;2023-11-21T13:20:54;12.20;99.90
4701;DHT22;8724;51.272;6.554;2023-11-21T13:23:24;12.30;99.90
4701;DHT22;8724;51.272;6.554;2023-11-21T13:25:53;12.30;99.90
4701;DHT22;8724;51.272;6.554;2023-11-21T13:28:31;12.20;99.90
4701;DHT22;8724;51.272;6.554;2023-11-21T13:31:01;12.20;99.90
4701;DHT22;8724;51.272;6.554;2023-11-21T13:33:38;12.20;99.90
4701;DHT22;8724;51.272;6.554;2023-11-21T13:36:08;12.20;99.90
4701;DHT22;8724;51.272;6.554;2023-11-21T13:38:38;12.20;99.90
4701;DHT22;8724;51.272;6.554;2023-11-21T13:41:10;12.20;99.90
4701;DHT22;8724;51.272;6.554;2023-11-21T13:43:41;12.30;99.90
4701;DHT22;8724;51.272;6.554;2023-11-21T13:46:11;12.20;99.90
4701;DHT22;8724;51.272;6.554;2023-11-21T13:48:46;12.20;99.90
4701;DHT22;8724;51.272;6.554;2023-11-21T13:51:22;12.20;99.90
4701;DHT22;8724;51.272;6.554;2023-11-21T13:53:58;12.20;99.90
4701;DHT22;8724;51.272;6.554;2023-11-21T13:56:27;12.20;99.90
4701;DHT22;8724;51.272;6.554;2023-11-21T13:58:56;12.20;99.90
4701;DHT22;8724;51.272;6.554;2023-11-21T14:01:30;12.10;99.90
4701;DHT22;8724;51.272;6.554;2023-11-21T14:04:22;12.20;99.90
4701;DHT22;8724;51.272;6.554;2023-11-21T14:07:06;12.20;99.90
4701;DHT22;8724;51.272;6.554;2023-11-21T14:09:47;12.10;99.90
4701;DHT22;8724;51.272;6.554;2023-11-21T14:12:16;12.10;99.90
4701;DHT22;8724;51.272;6.554;2023-11-21T14:14:45;12.10;99.90
4701;DHT22;8724;51.272;6.554;2023-11-21T14:17:15;12.20;99.90
4701;DHT22;8724;51.272;6.554;2023-11-21T14:19:44;12.20;99.90
4701;DHT22;8724;51.272;6.554;2023-11-21T14:22:14;12.20;99.90
4701;DHT22;8724;51.272;6.554;2023-11-21T14:24:44;12.20;99.90
4701;DHT22;8724;51.272;6.554;2023-11-21T14:27:14;12.30;99.90
4701;DHT22;8724;51.272;6.554;2023-11-21T14:29:43;12.30;99.90
4701;DHT22;8724;51.272;6.554;2023-11-21T14:32:12;12.30;99.90
4701;DHT22;8724;51.272;6.554;2023-11-21T14:34:41;12.40;99.90
4701;DHT22;8724;51.272;6.554;2023-11-21T14:37:14;12.30;99.90
4701;DHT22;8724;51.272;6.554;2023-11-21T14:39:42;12.40;99.90
4701;DHT22;8724;51.272;6.554;2023-11-21T14:42:13;12.40;99.90
4701;DHT22;8724;51.272;6.554;2023-11-21T14:44:43;12.40;99.90
4701;DHT22;8724;51.272;6.554;2023-11-21T14:47:11;12.40;99.90
4701;DHT22;8724;51.272;6.554;2023-11-21T14:49:43;12.50;99.90
4701;DHT22;8724;51.272;6.554;2023-11-21T14:52:22;12.50;99.90
4701;DHT22;8724;51.272;6.554;2023-11-21T14:55:00;12.50;99.90
4701;DHT22;8724;51.272;6.554;2023-11-21T14:57:42;12.50;99.90
4701;DHT22;8724;51.272;6.554;2023-11-21T15:00:17;12.50;99.90
4701;DHT22;8724;51.272;6.554;2023-11-21T15:03:09;12.50;99.90
4701;DHT22;8724;51.272;6.554;2023-11-21T15:05:42;12.50;99.90
4701;DHT22;8724;51.272;6.554;2023-11-21T15:08:10;12.50;99.90
4701;DHT22;8724;51.272;6.554;2023-11-21T15:10:48;12.50;99.90
4701;DHT22;8724;51.272;6.554;2023-11-21T15:13:21;12.50;99.90
4701;DHT22;8724;51.272;6.554;2023-11-21T15:15:51;12.50;99.90
4701;DHT22;8724;51.272;6.554;2023-11-21T15:18:21;12.50;99.90
4701;DHT22;8724;51.272;6.554;2023-11-21T15:20:49;12.50;99.90
4701;DHT22;8724;51.272;6.554;2023-11-21T15:23:19;12.50;99.90
4701;DHT22;8724;51.272;6.554;2023-11-21T15:25:47;12.50;99.90
4701;DHT22;8724;51.272;6.554;2023-11-21T15:28:15;12.50;99.90
4701;DHT22;8724;51.272;6.554;2023-11-21T15:30:45;12.50;99.90
4701;DHT22;8724;51.272;6.554;2023-11-21T15:33:15;12.50;99.90
4701;DHT22;8724;51.272;6.554;2023-11-21T15:35:43;12.50;99.90
4701;DHT22;8724;51.272;6.554;2023-11-21T15:38:11;12.50;99.90
4701;DHT22;8724;51.272;6.554;2023-11-21T15:40:42;12.50;99.90
4701;DHT22;8724;51.272;6.554;2023-11-21T15:43:12;12.50;99.90
4701;DHT22;8724;51.272;6.554;2023-11-21T15:45:41;12.50;99.90
4701;DHT22;8724;51.272;6.554;2023-11-21T15:48:09;12.50;99.90
4701;DHT22;8724;51.272;6.554;2023-11-21T15:50:38;12.50;99.90
4701;DHT22;8724;51.272;6.554;2023-11-21T15:53:06;12.50;99.90
4701;DHT22;8724;51.272;6.554;2023-11-21T15:55:34;12.50;99.90
4701;DHT22;8724;51.272;6.554;2023-11-21T15:58:09;12.50;99.90
4701;DHT22;8724;51.272;6.554;2023-11-21T16:00:38;12.50;99.90
4701;DHT22;8724;51.272;6.554;2023-11-21T16:03:06;12.50;99.90
4701;DHT22;8724;51.272;6.554;2023-11-21T16:05:36;12.50;99.90
4701;DHT22;8724;51.272;6.554;2023-11-21T16:08:04;12.50;99.90
4701;DHT22;8724;51.272;6.554;2023-11-21T16:10:32;12.50;99.90
4701;DHT22;8724;51.272;6.554;2023-11-21T16:13:03;12.50;99.90
4701;DHT22;8724;51.272;6.554;2023-11-21T16:15:32;12.50;99.90
4701;DHT22;8724;51.272;6.554;2023-11-21T16:18:00;12.50;99.90